sensor_id;sensor_type;location;lat;lon;timestamp;P1;durP1;ratioP1;P2;durP2;ratioP2
24826;SDS011;12910;57.690;11.974;2023-04-08T00:01:27;0.50;;;0.50;;
24826;SDS011;12910;57.690;11.974;2023-04-08T00:03:53;2.30;;;0.60;;
24826;SDS011;12910;57.690;11.974;2023-04-08T00:06:18;0.40;;;0.40;;
24826;SDS011;12910;57.690;11.974;2023-04-08T00:08:43;0.60;;;0.60;;
24826;SDS011;12910;57.690;11.974;2023-04-08T00:11:09;0.70;;;0.70;;
24826;SDS011;12910;57.690;11.974;2023-04-08T00:13:34;0.40;;;0.40;;
24826;SDS011;12910;57.690;11.974;2023-04-08T00:16:00;0.50;;;0.50;;
24826;SDS011;12910;57.690;11.974;2023-04-08T00:18:25;0.47;;;0.47;;
24826;SDS011;12910;57.690;11.974;2023-04-08T00:20:51;0.60;;;0.50;;
24826;SDS011;12910;57.690;11.974;2023-04-08T00:23:17;0.73;;;0.43;;
24826;SDS011;12910;57.690;11.974;2023-04-08T00:25:43;0.50;;;0.50;;
24826;SDS011;12910;57.690;11.974;2023-04-08T00:28:09;0.40;;;0.40;;
24826;SDS011;12910;57.690;11.974;2023-04-08T00:30:35;0.70;;;0.70;;
24826;SDS011;12910;57.690;11.974;2023-04-08T00:33:00;0.50;;;0.50;;
24826;SDS011;12910;57.690;11.974;2023-04-08T00:35:25;0.50;;;0.50;;
24826;SDS011;12910;57.690;11.974;2023-04-08T00:37:51;0.50;;;0.50;;
24826;SDS011;12910;57.690;11.974;2023-04-08T00:40:16;0.47;;;0.47;;
24826;SDS011;12910;57.690;11.974;2023-04-08T00:42:42;0.60;;;0.60;;
24826;SDS011;12910;57.690;11.974;2023-04-08T00:45:08;0.70;;;0.50;;
24826;SDS011;12910;57.690;11.974;2023-04-08T00:47:35;1.00;;;0.50;;
24826;SDS011;12910;57.690;11.974;2023-04-08T00:50:00;0.50;;;0.50;;
24826;SDS011;12910;57.690;11.974;2023-04-08T00:52:26;0.50;;;0.50;;
24826;SDS011;12910;57.690;11.974;2023-04-08T00:54:51;0.50;;;0.50;;
24826;SDS011;12910;57.690;11.974;2023-04-08T00:57:17;0.40;;;0.40;;
24826;SDS011;12910;57.690;11.974;2023-04-08T00:59:42;0.50;;;0.50;;
24826;SDS011;12910;57.690;11.974;2023-04-08T01:02:13;0.90;;;0.50;;
24826;SDS011;12910;57.690;11.974;2023-04-08T01:07:32;0.70;;;0.70;;
24826;SDS011;12910;57.690;11.974;2023-04-08T01:10:02;0.60;;;0.60;;
24826;SDS011;12910;57.690;11.974;2023-04-08T01:12:31;0.90;;;0.60;;
24826;SDS011;12910;57.690;11.974;2023-04-08T01:15:04;0.80;;;0.60;;
24826;SDS011;12910;57.690;11.974;2023-04-08T01:17:31;0.53;;;0.50;;
24826;SDS011;12910;57.690;11.974;2023-04-08T01:19:59;0.50;;;0.50;;
24826;SDS011;12910;57.690;11.974;2023-04-08T01:25:08;0.60;;;0.60;;
24826;SDS011;12910;57.690;11.974;2023-04-08T01:27:38;0.40;;;0.40;;
24826;SDS011;12910;57.690;11.974;2023-04-08T01:30:05;0.70;;;0.50;;
24826;SDS011;12910;57.690;11.974;2023-04-08T01:32:33;0.60;;;0.60;;
24826;SDS011;12910;57.690;11.974;2023-04-08T01:35:00;0.73;;;0.50;;
24826;SDS011;12910;57.690;11.974;2023-04-08T01:37:27;0.53;;;0.53;;
24826;SDS011;12910;57.690;11.974;2023-04-08T01:39:54;0.63;;;0.50;;
24826;SDS011;12910;57.690;11.974;2023-04-08T01:42:24;0.67;;;0.67;;
24826;SDS011;12910;57.690;11.974;2023-04-08T01:44:52;0.50;;;0.50;;
24826;SDS011;12910;57.690;11.974;2023-04-08T01:47:21;0.53;;;0.47;;
24826;SDS011;12910;57.690;11.974;2023-04-08T01:49:48;0.70;;;0.63;;
24826;SDS011;12910;57.690;11.974;2023-04-08T01:52:15;0.80;;;0.67;;
24826;SDS011;12910;57.690;11.974;2023-04-08T01:54:43;0.93;;;0.93;;
24826;SDS011;12910;57.690;11.974;2023-04-08T01:57:10;0.83;;;0.60;;
24826;SDS011;12910;57.690;11.974;2023-04-08T01:59:38;0.40;;;0.40;;
24826;SDS011;12910;57.690;11.974;2023-04-08T02:02:05;2.93;;;0.60;;
24826;SDS011;12910;57.690;11.974;2023-04-08T02:04:33;1.53;;;0.60;;
24826;SDS011;12910;57.690;11.974;2023-04-08T02:07:00;0.60;;;0.60;;
24826;SDS011;12910;57.690;11.974;2023-04-08T02:09:26;0.70;;;0.70;;
24826;SDS011;12910;57.690;11.974;2023-04-08T02:11:51;0.70;;;0.70;;
24826;SDS011;12910;57.690;11.974;2023-04-08T02:14:17;1.30;;;0.50;;
24826;SDS011;12910;57.690;11.974;2023-04-08T02:16:45;8.67;;;1.23;;
24826;SDS011;12910;57.690;11.974;2023-04-08T02:19:18;0.50;;;0.50;;
24826;SDS011;12910;57.690;11.974;2023-04-08T02:21:51;0.70;;;0.70;;
24826;SDS011;12910;57.690;11.974;2023-04-08T02:24:21;3.33;;;0.50;;
24826;SDS011;12910;57.690;11.974;2023-04-08T02:26:48;0.60;;;0.60;;
24826;SDS011;12910;57.690;11.974;2023-04-08T02:29:15;0.50;;;0.50;;
24826;SDS011;12910;57.690;11.974;2023-04-08T02:31:42;0.50;;;0.50;;
24826;SDS011;12910;57.690;11.974;2023-04-08T02:34:09;0.93;;;0.50;;
24826;SDS011;12910;57.690;11.974;2023-04-08T02:36:35;0.67;;;0.60;;
24826;SDS011;12910;57.690;11.974;2023-04-08T02:39:03;0.70;;;0.70;;
24826;SDS011;12910;57.690;11.974;2023-04-08T02:41:28;0.77;;;0.77;;
24826;SDS011;12910;57.690;11.974;2023-04-08T02:43:54;0.60;;;0.60;;
24826;SDS011;12910;57.690;11.974;2023-04-08T02:46:19;0.70;;;0.70;;
24826;SDS011;12910;57.690;11.974;2023-04-08T02:48:45;0.50;;;0.50;;
24826;SDS011;12910;57.690;11.974;2023-04-08T02:51:11;0.60;;;0.60;;
24826;SDS011;12910;57.690;11.974;2023-04-08T02:53:36;0.80;;;0.60;;
24826;SDS011;12910;57.690;11.974;2023-04-08T02:56:01;1.17;;;0.60;;
24826;SDS011;12910;57.690;11.974;2023-04-08T02:58:27;0.60;;;0.60;;
24826;SDS011;12910;57.690;11.974;2023-04-08T03:00:52;0.80;;;0.80;;
24826;SDS011;12910;57.690;11.974;2023-04-08T03:03:18;1.13;;;0.70;;
24826;SDS011;12910;57.690;11.974;2023-04-08T03:05:43;0.70;;;0.70;;
24826;SDS011;12910;57.690;11.974;2023-04-08T03:08:08;0.70;;;0.70;;
24826;SDS011;12910;57.690;11.974;2023-04-08T03:10:34;1.17;;;1.07;;
24826;SDS011;12910;57.690;11.974;2023-04-08T03:12:59;1.20;;;0.73;;
24826;SDS011;12910;57.690;11.974;2023-04-08T03:15:25;0.70;;;0.70;;
24826;SDS011;12910;57.690;11.974;2023-04-08T03:17:50;0.70;;;0.70;;
24826;SDS011;12910;57.690;11.974;2023-04-08T03:20:15;0.50;;;0.50;;
24826;SDS011;12910;57.690;11.974;2023-04-08T03:22:41;1.17;;;0.70;;
24826;SDS011;12910;57.690;11.974;2023-04-08T03:25:06;0.80;;;0.80;;
24826;SDS011;12910;57.690;11.974;2023-04-08T03:27:32;0.60;;;0.60;;
24826;SDS011;12910;57.690;11.974;2023-04-08T03:29:57;0.60;;;0.60;;
24826;SDS011;12910;57.690;11.974;2023-04-08T03:32:23;0.70;;;0.70;;
24826;SDS011;12910;57.690;11.974;2023-04-08T03:34:48;0.63;;;0.60;;
24826;SDS011;12910;57.690;11.974;2023-04-08T03:37:15;0.70;;;0.70;;
24826;SDS011;12910;57.690;11.974;2023-04-08T03:39:41;0.80;;;0.53;;
24826;SDS011;12910;57.690;11.974;2023-04-08T03:42:06;0.80;;;0.80;;
24826;SDS011;12910;57.690;11.974;2023-04-08T03:44:32;0.90;;;0.90;;
24826;SDS011;12910;57.690;11.974;2023-04-08T03:46:57;0.90;;;0.77;;
24826;SDS011;12910;57.690;11.974;2023-04-08T03:49:22;0.90;;;0.90;;
24826;SDS011;12910;57.690;11.974;2023-04-08T03:51:48;0.60;;;0.60;;
24826;SDS011;12910;57.690;11.974;2023-04-08T03:54:14;0.47;;;0.47;;
24826;SDS011;12910;57.690;11.974;2023-04-08T03:56:39;4.87;;;1.00;;
24826;SDS011;12910;57.690;11.974;2023-04-08T03:59:05;0.43;;;0.43;;
24826;SDS011;12910;57.690;11.974;2023-04-08T04:01:30;0.70;;;0.60;;
24826;SDS011;12910;57.690;11.974;2023-04-08T04:03:56;0.60;;;0.60;;
24826;SDS011;12910;57.690;11.974;2023-04-08T04:06:22;0.67;;;0.67;;
24826;SDS011;12910;57.690;11.974;2023-04-08T04:08:47;0.70;;;0.70;;
24826;SDS011;12910;57.690;11.974;2023-04-08T04:11:14;2.20;;;0.70;;
24826;SDS011;12910;57.690;11.974;2023-04-08T04:13:39;0.77;;;0.67;;
24826;SDS011;12910;57.690;11.974;2023-04-08T04:16:05;0.63;;;0.63;;
24826;SDS011;12910;57.690;11.974;2023-04-08T04:18:30;1.27;;;1.03;;
24826;SDS011;12910;57.690;11.974;2023-04-08T04:20:55;0.83;;;0.80;;
24826;SDS011;12910;57.690;11.974;2023-04-08T04:23:21;0.80;;;0.80;;
24826;SDS011;12910;57.690;11.974;2023-04-08T04:25:48;5.60;;;1.00;;
24826;SDS011;12910;57.690;11.974;2023-04-08T04:28:14;0.70;;;0.70;;
24826;SDS011;12910;57.690;11.974;2023-04-08T04:30:39;1.07;;;0.80;;
24826;SDS011;12910;57.690;11.974;2023-04-08T04:33:05;2.87;;;0.80;;
24826;SDS011;12910;57.690;11.974;2023-04-08T04:35:31;0.70;;;0.70;;
24826;SDS011;12910;57.690;11.974;2023-04-08T04:37:57;0.97;;;0.97;;
24826;SDS011;12910;57.690;11.974;2023-04-08T04:40:22;0.70;;;0.70;;
24826;SDS011;12910;57.690;11.974;2023-04-08T04:42:47;1.17;;;0.80;;
24826;SDS011;12910;57.690;11.974;2023-04-08T04:45:13;1.00;;;0.80;;
24826;SDS011;12910;57.690;11.974;2023-04-08T04:47:38;3.03;;;0.90;;
24826;SDS011;12910;57.690;11.974;2023-04-08T04:50:04;0.60;;;0.60;;
24826;SDS011;12910;57.690;11.974;2023-04-08T04:52:30;1.80;;;1.13;;
24826;SDS011;12910;57.690;11.974;2023-04-08T04:54:56;0.90;;;0.80;;
24826;SDS011;12910;57.690;11.974;2023-04-08T04:57:22;0.80;;;0.80;;
24826;SDS011;12910;57.690;11.974;2023-04-08T04:59:47;0.70;;;0.70;;
24826;SDS011;12910;57.690;11.974;2023-04-08T05:02:13;1.10;;;0.77;;
24826;SDS011;12910;57.690;11.974;2023-04-08T05:04:38;0.70;;;0.70;;
24826;SDS011;12910;57.690;11.974;2023-04-08T05:07:04;0.97;;;0.90;;
24826;SDS011;12910;57.690;11.974;2023-04-08T05:09:29;0.63;;;0.63;;
24826;SDS011;12910;57.690;11.974;2023-04-08T05:11:55;1.03;;;1.00;;
24826;SDS011;12910;57.690;11.974;2023-04-08T05:14:21;1.97;;;1.10;;
24826;SDS011;12910;57.690;11.974;2023-04-08T05:16:46;1.23;;;1.13;;
24826;SDS011;12910;57.690;11.974;2023-04-08T05:19:11;1.63;;;0.80;;
24826;SDS011;12910;57.690;11.974;2023-04-08T05:21:37;0.90;;;0.90;;
24826;SDS011;12910;57.690;11.974;2023-04-08T05:24:02;0.87;;;0.87;;
24826;SDS011;12910;57.690;11.974;2023-04-08T05:26:28;2.87;;;0.80;;
24826;SDS011;12910;57.690;11.974;2023-04-08T05:28:53;0.70;;;0.70;;
24826;SDS011;12910;57.690;11.974;2023-04-08T05:31:19;1.17;;;0.90;;
24826;SDS011;12910;57.690;11.974;2023-04-08T05:33:44;0.97;;;0.97;;
24826;SDS011;12910;57.690;11.974;2023-04-08T05:36:11;1.40;;;0.97;;
24826;SDS011;12910;57.690;11.974;2023-04-08T05:38:37;1.60;;;1.50;;
24826;SDS011;12910;57.690;11.974;2023-04-08T05:41:03;1.10;;;1.00;;
24826;SDS011;12910;57.690;11.974;2023-04-08T05:43:28;1.13;;;1.00;;
24826;SDS011;12910;57.690;11.974;2023-04-08T05:45:54;1.73;;;1.50;;
24826;SDS011;12910;57.690;11.974;2023-04-08T05:48:19;1.30;;;1.20;;
24826;SDS011;12910;57.690;11.974;2023-04-08T05:50:45;2.20;;;0.97;;
24826;SDS011;12910;57.690;11.974;2023-04-08T05:53:12;4.60;;;1.20;;
24826;SDS011;12910;57.690;11.974;2023-04-08T05:55:37;2.77;;;1.37;;
24826;SDS011;12910;57.690;11.974;2023-04-08T05:58:03;0.80;;;0.80;;
24826;SDS011;12910;57.690;11.974;2023-04-08T06:00:28;1.40;;;1.30;;
24826;SDS011;12910;57.690;11.974;2023-04-08T06:02:53;1.67;;;1.20;;
24826;SDS011;12910;57.690;11.974;2023-04-08T06:05:19;1.10;;;1.00;;
24826;SDS011;12910;57.690;11.974;2023-04-08T06:07:44;2.50;;;1.30;;
24826;SDS011;12910;57.690;11.974;2023-04-08T06:10:10;1.40;;;1.10;;
24826;SDS011;12910;57.690;11.974;2023-04-08T06:12:35;1.30;;;1.20;;
24826;SDS011;12910;57.690;11.974;2023-04-08T06:15:05;2.47;;;1.17;;
24826;SDS011;12910;57.690;11.974;2023-04-08T06:17:31;1.63;;;1.53;;
24826;SDS011;12910;57.690;11.974;2023-04-08T06:19:57;1.37;;;1.27;;
24826;SDS011;12910;57.690;11.974;2023-04-08T06:22:22;1.37;;;1.27;;
24826;SDS011;12910;57.690;11.974;2023-04-08T06:24:47;4.07;;;1.43;;
24826;SDS011;12910;57.690;11.974;2023-04-08T06:27:13;1.90;;;1.30;;
24826;SDS011;12910;57.690;11.974;2023-04-08T06:29:39;2.37;;;1.20;;
24826;SDS011;12910;57.690;11.974;2023-04-08T06:32:05;1.37;;;1.27;;
24826;SDS011;12910;57.690;11.974;2023-04-08T06:34:30;1.83;;;1.27;;
24826;SDS011;12910;57.690;11.974;2023-04-08T06:36:56;1.67;;;1.23;;
24826;SDS011;12910;57.690;11.974;2023-04-08T06:39:21;2.00;;;1.83;;
24826;SDS011;12910;57.690;11.974;2023-04-08T06:41:47;2.90;;;1.30;;
24826;SDS011;12910;57.690;11.974;2023-04-08T06:44:12;1.00;;;0.90;;
24826;SDS011;12910;57.690;11.974;2023-04-08T06:46:38;1.33;;;1.20;;
24826;SDS011;12910;57.690;11.974;2023-04-08T06:49:03;1.23;;;1.10;;
24826;SDS011;12910;57.690;11.974;2023-04-08T06:51:30;1.20;;;1.10;;
24826;SDS011;12910;57.690;11.974;2023-04-08T06:53:56;1.20;;;1.13;;
24826;SDS011;12910;57.690;11.974;2023-04-08T06:56:21;1.20;;;0.93;;
24826;SDS011;12910;57.690;11.974;2023-04-08T06:58:47;1.63;;;1.10;;
24826;SDS011;12910;57.690;11.974;2023-04-08T07:01:12;4.90;;;1.10;;
24826;SDS011;12910;57.690;11.974;2023-04-08T07:03:38;5.13;;;1.37;;
24826;SDS011;12910;57.690;11.974;2023-04-08T07:06:03;1.33;;;1.23;;
24826;SDS011;12910;57.690;11.974;2023-04-08T07:08:29;1.43;;;1.30;;
24826;SDS011;12910;57.690;11.974;2023-04-08T07:10:54;0.97;;;0.90;;
24826;SDS011;12910;57.690;11.974;2023-04-08T07:13:19;1.10;;;0.87;;
24826;SDS011;12910;57.690;11.974;2023-04-08T07:15:45;0.87;;;0.83;;
24826;SDS011;12910;57.690;11.974;2023-04-08T07:18:10;2.80;;;0.80;;
24826;SDS011;12910;57.690;11.974;2023-04-08T07:20:36;1.73;;;0.93;;
24826;SDS011;12910;57.690;11.974;2023-04-08T07:23:02;1.37;;;1.13;;
24826;SDS011;12910;57.690;11.974;2023-04-08T07:25:28;0.80;;;0.80;;
24826;SDS011;12910;57.690;11.974;2023-04-08T07:27:53;0.90;;;0.90;;
24826;SDS011;12910;57.690;11.974;2023-04-08T07:30:18;1.23;;;0.90;;
24826;SDS011;12910;57.690;11.974;2023-04-08T07:32:44;1.33;;;0.90;;
24826;SDS011;12910;57.690;11.974;2023-04-08T07:35:09;2.73;;;1.43;;
24826;SDS011;12910;57.690;11.974;2023-04-08T07:37:34;7.20;;;1.33;;
24826;SDS011;12910;57.690;11.974;2023-04-08T07:40:00;2.00;;;0.93;;
24826;SDS011;12910;57.690;11.974;2023-04-08T07:42:26;1.70;;;1.20;;
24826;SDS011;12910;57.690;11.974;2023-04-08T07:44:51;1.63;;;1.03;;
24826;SDS011;12910;57.690;11.974;2023-04-08T07:47:16;1.43;;;1.33;;
24826;SDS011;12910;57.690;11.974;2023-04-08T07:49:44;0.80;;;0.80;;
24826;SDS011;12910;57.690;11.974;2023-04-08T07:52:10;1.33;;;1.10;;
24826;SDS011;12910;57.690;11.974;2023-04-08T07:54:36;1.00;;;0.90;;
24826;SDS011;12910;57.690;11.974;2023-04-08T07:57:01;1.10;;;1.00;;
24826;SDS011;12910;57.690;11.974;2023-04-08T07:59:27;1.20;;;1.10;;
24826;SDS011;12910;57.690;11.974;2023-04-08T08:01:53;0.97;;;0.90;;
24826;SDS011;12910;57.690;11.974;2023-04-08T08:04:18;1.00;;;0.90;;
24826;SDS011;12910;57.690;11.974;2023-04-08T08:06:44;1.30;;;1.00;;
24826;SDS011;12910;57.690;11.974;2023-04-08T08:09:10;5.40;;;0.90;;
24826;SDS011;12910;57.690;11.974;2023-04-08T08:11:35;1.20;;;1.10;;
24826;SDS011;12910;57.690;11.974;2023-04-08T08:14:01;1.00;;;0.90;;
24826;SDS011;12910;57.690;11.974;2023-04-08T08:16:29;1.67;;;0.97;;
24826;SDS011;12910;57.690;11.974;2023-04-08T08:18:56;1.20;;;0.90;;
24826;SDS011;12910;57.690;11.974;2023-04-08T08:21:22;2.00;;;1.33;;
24826;SDS011;12910;57.690;11.974;2023-04-08T08:23:47;1.20;;;1.07;;
24826;SDS011;12910;57.690;11.974;2023-04-08T08:26:13;1.40;;;1.30;;
24826;SDS011;12910;57.690;11.974;2023-04-08T08:28:38;1.10;;;1.00;;
24826;SDS011;12910;57.690;11.974;2023-04-08T08:31:04;1.30;;;1.00;;
24826;SDS011;12910;57.690;11.974;2023-04-08T08:33:30;1.40;;;1.07;;
24826;SDS011;12910;57.690;11.974;2023-04-08T08:35:56;2.63;;;1.53;;
24826;SDS011;12910;57.690;11.974;2023-04-08T08:38:22;1.43;;;1.13;;
24826;SDS011;12910;57.690;11.974;2023-04-08T08:40:52;1.07;;;1.03;;
24826;SDS011;12910;57.690;11.974;2023-04-08T08:43:22;1.60;;;1.30;;
24826;SDS011;12910;57.690;11.974;2023-04-08T08:45:48;1.93;;;1.40;;
24826;SDS011;12910;57.690;11.974;2023-04-08T08:48:14;1.53;;;1.10;;
24826;SDS011;12910;57.690;11.974;2023-04-08T08:50:39;1.60;;;1.10;;
24826;SDS011;12910;57.690;11.974;2023-04-08T08:53:04;1.67;;;1.53;;
24826;SDS011;12910;57.690;11.974;2023-04-08T08:55:30;1.40;;;1.30;;
24826;SDS011;12910;57.690;11.974;2023-04-08T08:57:58;1.60;;;1.40;;
24826;SDS011;12910;57.690;11.974;2023-04-08T09:00:31;0.90;;;0.90;;
24826;SDS011;12910;57.690;11.974;2023-04-08T09:03:06;1.40;;;1.30;;
24826;SDS011;12910;57.690;11.974;2023-04-08T09:05:50;1.40;;;1.20;;
24826;SDS011;12910;57.690;11.974;2023-04-08T09:08:31;1.53;;;1.43;;
24826;SDS011;12910;57.690;11.974;2023-04-08T09:11:17;1.10;;;1.00;;
24826;SDS011;12910;57.690;11.974;2023-04-08T09:13:45;8.30;;;1.30;;
24826;SDS011;12910;57.690;11.974;2023-04-08T09:16:15;2.17;;;1.10;;
24826;SDS011;12910;57.690;11.974;2023-04-08T09:18:46;1.57;;;1.37;;
24826;SDS011;12910;57.690;11.974;2023-04-08T09:21:13;1.00;;;0.90;;
24826;SDS011;12910;57.690;11.974;2023-04-08T09:23:39;5.87;;;1.00;;
24826;SDS011;12910;57.690;11.974;2023-04-08T09:26:13;1.37;;;1.27;;
24826;SDS011;12910;57.690;11.974;2023-04-08T09:31:31;1.27;;;1.17;;
24826;SDS011;12910;57.690;11.974;2023-04-08T09:33:58;6.90;;;1.10;;
24826;SDS011;12910;57.690;11.974;2023-04-08T09:36:26;1.77;;;0.97;;
24826;SDS011;12910;57.690;11.974;2023-04-08T09:38:52;1.33;;;1.20;;
24826;SDS011;12910;57.690;11.974;2023-04-08T09:41:19;1.47;;;1.10;;
24826;SDS011;12910;57.690;11.974;2023-04-08T09:46:16;1.73;;;1.20;;
24826;SDS011;12910;57.690;11.974;2023-04-08T09:49:00;1.33;;;1.23;;
24826;SDS011;12910;57.690;11.974;2023-04-08T09:51:31;1.40;;;1.30;;
24826;SDS011;12910;57.690;11.974;2023-04-08T09:54:02;1.70;;;1.60;;
24826;SDS011;12910;57.690;11.974;2023-04-08T09:56:38;1.97;;;1.43;;
24826;SDS011;12910;57.690;11.974;2023-04-08T09:59:08;7.10;;;1.33;;
24826;SDS011;12910;57.690;11.974;2023-04-08T10:01:43;1.20;;;1.07;;
24826;SDS011;12910;57.690;11.974;2023-04-08T10:04:14;1.50;;;1.40;;
24826;SDS011;12910;57.690;11.974;2023-04-08T10:06:43;2.77;;;1.50;;
24826;SDS011;12910;57.690;11.974;2023-04-08T10:09:10;3.33;;;1.90;;
24826;SDS011;12910;57.690;11.974;2023-04-08T10:11:35;2.07;;;1.80;;
24826;SDS011;12910;57.690;11.974;2023-04-08T10:14:01;1.50;;;1.40;;
24826;SDS011;12910;57.690;11.974;2023-04-08T10:16:27;1.47;;;1.37;;
24826;SDS011;12910;57.690;11.974;2023-04-08T10:18:52;2.63;;;1.37;;
24826;SDS011;12910;57.690;11.974;2023-04-08T10:21:37;1.37;;;1.27;;
24826;SDS011;12910;57.690;11.974;2023-04-08T10:24:10;3.13;;;1.73;;
24826;SDS011;12910;57.690;11.974;2023-04-08T10:26:36;1.67;;;1.57;;
24826;SDS011;12910;57.690;11.974;2023-04-08T10:34:18;3.23;;;1.80;;
24826;SDS011;12910;57.690;11.974;2023-04-08T10:36:51;2.57;;;1.80;;
24826;SDS011;12910;57.690;11.974;2023-04-08T10:39:19;1.67;;;1.57;;
24826;SDS011;12910;57.690;11.974;2023-04-08T10:41:45;1.70;;;1.60;;
24826;SDS011;12910;57.690;11.974;2023-04-08T10:44:15;5.20;;;2.40;;
24826;SDS011;12910;57.690;11.974;2023-04-08T10:46:44;1.87;;;1.77;;
24826;SDS011;12910;57.690;11.974;2023-04-08T10:49:10;1.80;;;1.50;;
24826;SDS011;12910;57.690;11.974;2023-04-08T10:51:37;2.00;;;1.80;;
24826;SDS011;12910;57.690;11.974;2023-04-08T10:54:21;2.73;;;1.63;;
24826;SDS011;12910;57.690;11.974;2023-04-08T10:56:48;3.00;;;2.30;;
24826;SDS011;12910;57.690;11.974;2023-04-08T10:59:15;1.70;;;1.60;;
24826;SDS011;12910;57.690;11.974;2023-04-08T11:01:42;5.93;;;2.03;;
24826;SDS011;12910;57.690;11.974;2023-04-08T11:04:15;1.57;;;1.47;;
24826;SDS011;12910;57.690;11.974;2023-04-08T11:06:47;3.13;;;1.50;;
24826;SDS011;12910;57.690;11.974;2023-04-08T11:09:13;1.90;;;1.50;;
24826;SDS011;12910;57.690;11.974;2023-04-08T11:11:41;1.40;;;1.30;;
24826;SDS011;12910;57.690;11.974;2023-04-08T11:14:07;5.27;;;1.60;;
24826;SDS011;12910;57.690;11.974;2023-04-08T11:16:34;2.63;;;1.50;;
24826;SDS011;12910;57.690;11.974;2023-04-08T11:19:01;2.17;;;1.73;;
24826;SDS011;12910;57.690;11.974;2023-04-08T11:21:29;1.60;;;1.30;;
24826;SDS011;12910;57.690;11.974;2023-04-08T11:24:10;1.50;;;1.40;;
24826;SDS011;12910;57.690;11.974;2023-04-08T11:26:36;1.63;;;1.53;;
24826;SDS011;12910;57.690;11.974;2023-04-08T11:29:02;3.67;;;1.90;;
24826;SDS011;12910;57.690;11.974;2023-04-08T11:31:28;4.67;;;2.10;;
24826;SDS011;12910;57.690;11.974;2023-04-08T11:33:53;3.37;;;1.60;;
24826;SDS011;12910;57.690;11.974;2023-04-08T11:36:20;2.40;;;2.20;;
24826;SDS011;12910;57.690;11.974;2023-04-08T11:38:46;5.10;;;2.20;;
24826;SDS011;12910;57.690;11.974;2023-04-08T11:41:12;2.70;;;2.20;;
24826;SDS011;12910;57.690;11.974;2023-04-08T11:43:37;3.13;;;2.47;;
24826;SDS011;12910;57.690;11.974;2023-04-08T11:46:11;2.30;;;1.93;;
24826;SDS011;12910;57.690;11.974;2023-04-08T11:48:37;3.43;;;1.60;;
24826;SDS011;12910;57.690;11.974;2023-04-08T11:51:06;6.40;;;1.97;;
24826;SDS011;12910;57.690;11.974;2023-04-08T11:53:33;5.27;;;1.83;;
24826;SDS011;12910;57.690;11.974;2023-04-08T11:56:16;2.53;;;2.33;;
24826;SDS011;12910;57.690;11.974;2023-04-08T11:58:42;2.50;;;2.30;;
24826;SDS011;12910;57.690;11.974;2023-04-08T12:01:08;1.83;;;1.73;;
24826;SDS011;12910;57.690;11.974;2023-04-08T12:03:33;2.40;;;2.20;;
24826;SDS011;12910;57.690;11.974;2023-04-08T12:05:59;2.03;;;1.93;;
24826;SDS011;12910;57.690;11.974;2023-04-08T12:08:24;3.67;;;2.10;;
24826;SDS011;12910;57.690;11.974;2023-04-08T12:10:50;4.30;;;2.50;;
24826;SDS011;12910;57.690;11.974;2023-04-08T12:13:15;2.70;;;2.47;;
24826;SDS011;12910;57.690;11.974;2023-04-08T12:15:40;2.27;;;2.07;;
24826;SDS011;12910;57.690;11.974;2023-04-08T12:18:06;2.67;;;2.23;;
24826;SDS011;12910;57.690;11.974;2023-04-08T12:20:31;3.90;;;2.30;;
24826;SDS011;12910;57.690;11.974;2023-04-08T12:22:56;2.30;;;2.17;;
24826;SDS011;12910;57.690;11.974;2023-04-08T12:25:22;5.40;;;2.60;;
24826;SDS011;12910;57.690;11.974;2023-04-08T12:27:47;3.50;;;2.53;;
24826;SDS011;12910;57.690;11.974;2023-04-08T12:30:13;2.30;;;2.10;;
24826;SDS011;12910;57.690;11.974;2023-04-08T12:32:38;2.90;;;2.70;;
24826;SDS011;12910;57.690;11.974;2023-04-08T12:35:03;2.17;;;2.03;;
24826;SDS011;12910;57.690;11.974;2023-04-08T12:37:30;4.57;;;2.20;;
24826;SDS011;12910;57.690;11.974;2023-04-08T12:39:57;3.70;;;2.00;;
24826;SDS011;12910;57.690;11.974;2023-04-08T12:42:22;2.13;;;2.03;;
24826;SDS011;12910;57.690;11.974;2023-04-08T12:44:48;3.87;;;1.90;;
24826;SDS011;12910;57.690;11.974;2023-04-08T12:47:13;5.67;;;2.07;;
24826;SDS011;12910;57.690;11.974;2023-04-08T12:49:38;2.70;;;2.50;;
24826;SDS011;12910;57.690;11.974;2023-04-08T12:52:04;2.67;;;2.47;;
24826;SDS011;12910;57.690;11.974;2023-04-08T12:54:29;2.30;;;1.80;;
24826;SDS011;12910;57.690;11.974;2023-04-08T12:56:55;3.17;;;2.87;;
24826;SDS011;12910;57.690;11.974;2023-04-08T12:59:21;4.27;;;1.80;;
24826;SDS011;12910;57.690;11.974;2023-04-08T13:01:46;1.80;;;1.70;;
24826;SDS011;12910;57.690;11.974;2023-04-08T13:04:12;2.10;;;1.93;;
24826;SDS011;12910;57.690;11.974;2023-04-08T13:06:37;2.70;;;1.90;;
24826;SDS011;12910;57.690;11.974;2023-04-08T13:09:02;2.40;;;2.17;;
24826;SDS011;12910;57.690;11.974;2023-04-08T13:11:28;7.03;;;2.80;;
24826;SDS011;12910;57.690;11.974;2023-04-08T13:13:53;17.70;;;2.50;;
24826;SDS011;12910;57.690;11.974;2023-04-08T13:16:18;2.43;;;2.23;;
24826;SDS011;12910;57.690;11.974;2023-04-08T13:18:44;3.43;;;2.37;;
24826;SDS011;12910;57.690;11.974;2023-04-08T13:21:09;2.17;;;2.07;;
24826;SDS011;12910;57.690;11.974;2023-04-08T13:23:35;2.63;;;1.93;;
24826;SDS011;12910;57.690;11.974;2023-04-08T13:26:00;4.10;;;2.30;;
24826;SDS011;12910;57.690;11.974;2023-04-08T13:28:26;2.33;;;2.23;;
24826;SDS011;12910;57.690;11.974;2023-04-08T13:30:51;2.67;;;2.10;;
24826;SDS011;12910;57.690;11.974;2023-04-08T13:33:17;3.43;;;1.83;;
24826;SDS011;12910;57.690;11.974;2023-04-08T13:35:43;3.93;;;2.10;;
24826;SDS011;12910;57.690;11.974;2023-04-08T13:38:08;3.40;;;2.53;;
24826;SDS011;12910;57.690;11.974;2023-04-08T13:40:33;7.30;;;2.00;;
24826;SDS011;12910;57.690;11.974;2023-04-08T13:42:59;2.53;;;2.33;;
24826;SDS011;12910;57.690;11.974;2023-04-08T13:45:25;2.10;;;1.90;;
24826;SDS011;12910;57.690;11.974;2023-04-08T13:47:51;1.90;;;1.80;;
24826;SDS011;12910;57.690;11.974;2023-04-08T13:50:16;1.83;;;1.70;;
24826;SDS011;12910;57.690;11.974;2023-04-08T13:52:41;2.93;;;2.73;;
24826;SDS011;12910;57.690;11.974;2023-04-08T13:55:07;1.90;;;1.80;;
24826;SDS011;12910;57.690;11.974;2023-04-08T13:57:32;2.03;;;1.83;;
24826;SDS011;12910;57.690;11.974;2023-04-08T13:59:58;3.70;;;2.03;;
24826;SDS011;12910;57.690;11.974;2023-04-08T14:02:23;5.90;;;1.90;;
24826;SDS011;12910;57.690;11.974;2023-04-08T14:04:48;4.13;;;2.00;;
24826;SDS011;12910;57.690;11.974;2023-04-08T14:07:14;2.67;;;2.33;;
24826;SDS011;12910;57.690;11.974;2023-04-08T14:09:40;9.47;;;2.37;;
24826;SDS011;12910;57.690;11.974;2023-04-08T14:12:06;2.63;;;2.43;;
24826;SDS011;12910;57.690;11.974;2023-04-08T14:14:31;1.97;;;1.87;;
24826;SDS011;12910;57.690;11.974;2023-04-08T14:16:56;11.40;;;1.97;;
24826;SDS011;12910;57.690;11.974;2023-04-08T14:19:22;1.80;;;1.70;;
24826;SDS011;12910;57.690;11.974;2023-04-08T14:21:47;2.20;;;1.80;;
24826;SDS011;12910;57.690;11.974;2023-04-08T14:24:13;2.30;;;2.10;;
24826;SDS011;12910;57.690;11.974;2023-04-08T14:26:39;3.40;;;2.70;;
24826;SDS011;12910;57.690;11.974;2023-04-08T14:29:05;2.80;;;2.17;;
24826;SDS011;12910;57.690;11.974;2023-04-08T14:31:31;2.97;;;2.03;;
24826;SDS011;12910;57.690;11.974;2023-04-08T14:33:57;3.40;;;2.17;;
24826;SDS011;12910;57.690;11.974;2023-04-08T14:36:23;6.00;;;2.00;;
24826;SDS011;12910;57.690;11.974;2023-04-08T14:38:50;4.33;;;2.00;;
24826;SDS011;12910;57.690;11.974;2023-04-08T14:41:15;1.97;;;1.73;;
24826;SDS011;12910;57.690;11.974;2023-04-08T14:43:41;1.70;;;1.50;;
24826;SDS011;12910;57.690;11.974;2023-04-08T14:46:06;7.27;;;2.03;;